KHSA

Stennis International Airport

Bay St Louis, Mississippi, USA
METAR KHSA 250052Z 09007KT 10SM SCT025 BKN050 24/20 A3004
Observed Flight Rules
May-25 @ 00:52 UTC (27 minutes ago) Visual Flight Rules
Wind Visibility Clouds
90° at 7 knots 10 miles
  • Scattered at 2,500' AGL
  • Broken at 5,000' AGL
Temperatures Readings
Current 24°C / 75°F
Dewpoint 20°C / 68°F
Humidity 78%
Altimeter 30.04" Hg
Pressure 1017 hPa
Elevation 7
METAR KHSA 250052Z 09007KT 10SM SCT025 BKN050 24/20 A3004
Observed Flight Rules
May-25 @ 00:52 UTC
(27 minutes ago)
VFR
Wind Visibility
90° at 7 knots 10 miles
Clouds
  • Scattered at 2,500' AGL
  • Broken at 5,000' AGL
Temperature Dewpoint
24°C / 75°F 20°C / 68°F
Humidity Altimeter Pressure
78% 30.04" Hg 1017 hPa